sensor_id;sensor_type;location;lat;lon;timestamp;P1;durP1;ratioP1;P2;durP2;ratioP2
6858;SDS011;3468;42.824;23.240;2023-05-28T00:02:06;6.00;;;4.50;;
6858;SDS011;3468;42.824;23.240;2023-05-28T00:04:32;12.20;;;5.20;;
6858;SDS011;3468;42.824;23.240;2023-05-28T00:07:01;10.70;;;4.80;;
6858;SDS011;3468;42.824;23.240;2023-05-28T00:09:28;7.13;;;5.27;;
6858;SDS011;3468;42.824;23.240;2023-05-28T00:11:54;8.00;;;4.50;;
6858;SDS011;3468;42.824;23.240;2023-05-28T00:14:21;5.73;;;4.57;;
6858;SDS011;3468;42.824;23.240;2023-05-28T00:16:48;7.17;;;4.57;;
6858;SDS011;3468;42.824;23.240;2023-05-28T00:19:16;6.47;;;4.50;;
6858;SDS011;3468;42.824;23.240;2023-05-28T00:21:43;6.27;;;4.53;;
6858;SDS011;3468;42.824;23.240;2023-05-28T00:24:11;6.43;;;4.33;;
6858;SDS011;3468;42.824;23.240;2023-05-28T00:26:37;4.93;;;4.37;;
6858;SDS011;3468;42.824;23.240;2023-05-28T00:29:04;6.43;;;4.10;;
6858;SDS011;3468;42.824;23.240;2023-05-28T00:31:31;6.93;;;4.30;;
6858;SDS011;3468;42.824;23.240;2023-05-28T00:33:58;6.23;;;4.27;;
6858;SDS011;3468;42.824;23.240;2023-05-28T00:36:24;7.90;;;4.30;;
6858;SDS011;3468;42.824;23.240;2023-05-28T00:38:51;6.73;;;4.53;;
6858;SDS011;3468;42.824;23.240;2023-05-28T00:41:20;8.23;;;4.10;;
6858;SDS011;3468;42.824;23.240;2023-05-28T00:43:47;4.87;;;3.97;;
6858;SDS011;3468;42.824;23.240;2023-05-28T00:46:16;6.40;;;4.33;;
6858;SDS011;3468;42.824;23.240;2023-05-28T00:48:44;6.03;;;4.50;;
6858;SDS011;3468;42.824;23.240;2023-05-28T00:51:12;6.13;;;4.00;;
6858;SDS011;3468;42.824;23.240;2023-05-28T00:53:40;5.27;;;4.20;;
6858;SDS011;3468;42.824;23.240;2023-05-28T00:56:07;6.97;;;4.30;;
6858;SDS011;3468;42.824;23.240;2023-05-28T00:58:38;5.97;;;4.20;;
6858;SDS011;3468;42.824;23.240;2023-05-28T01:01:05;6.80;;;4.50;;
6858;SDS011;3468;42.824;23.240;2023-05-28T01:03:33;6.37;;;4.63;;
6858;SDS011;3468;42.824;23.240;2023-05-28T01:06:03;5.77;;;4.80;;
6858;SDS011;3468;42.824;23.240;2023-05-28T01:08:32;6.33;;;4.47;;
6858;SDS011;3468;42.824;23.240;2023-05-28T01:10:59;6.90;;;4.43;;
6858;SDS011;3468;42.824;23.240;2023-05-28T01:13:26;7.80;;;4.47;;
6858;SDS011;3468;42.824;23.240;2023-05-28T01:15:54;6.20;;;4.00;;
6858;SDS011;3468;42.824;23.240;2023-05-28T01:18:21;6.87;;;4.40;;
6858;SDS011;3468;42.824;23.240;2023-05-28T01:20:49;8.67;;;5.13;;
6858;SDS011;3468;42.824;23.240;2023-05-28T01:23:17;9.03;;;4.70;;
6858;SDS011;3468;42.824;23.240;2023-05-28T01:25:50;11.93;;;5.03;;
6858;SDS011;3468;42.824;23.240;2023-05-28T01:28:19;6.27;;;4.70;;
6858;SDS011;3468;42.824;23.240;2023-05-28T01:30:46;6.73;;;4.83;;
6858;SDS011;3468;42.824;23.240;2023-05-28T01:33:13;7.47;;;5.13;;
6858;SDS011;3468;42.824;23.240;2023-05-28T01:35:40;7.10;;;4.60;;
6858;SDS011;3468;42.824;23.240;2023-05-28T01:38:08;8.90;;;5.13;;
6858;SDS011;3468;42.824;23.240;2023-05-28T01:40:38;9.70;;;4.93;;
6858;SDS011;3468;42.824;23.240;2023-05-28T01:43:07;8.63;;;5.13;;
6858;SDS011;3468;42.824;23.240;2023-05-28T01:45:35;7.50;;;5.00;;
6858;SDS011;3468;42.824;23.240;2023-05-28T01:48:02;8.90;;;5.90;;
6858;SDS011;3468;42.824;23.240;2023-05-28T01:50:29;9.60;;;5.30;;
6858;SDS011;3468;42.824;23.240;2023-05-28T01:52:57;9.87;;;5.03;;
6858;SDS011;3468;42.824;23.240;2023-05-28T01:55:24;9.93;;;5.07;;
6858;SDS011;3468;42.824;23.240;2023-05-28T01:57:51;9.13;;;5.37;;
6858;SDS011;3468;42.824;23.240;2023-05-28T02:00:19;6.63;;;5.17;;
6858;SDS011;3468;42.824;23.240;2023-05-28T02:02:48;5.40;;;4.40;;
6858;SDS011;3468;42.824;23.240;2023-05-28T02:05:14;8.00;;;4.73;;
6858;SDS011;3468;42.824;23.240;2023-05-28T02:07:41;6.63;;;5.13;;
6858;SDS011;3468;42.824;23.240;2023-05-28T02:10:08;6.40;;;4.70;;
6858;SDS011;3468;42.824;23.240;2023-05-28T02:12:35;9.33;;;5.60;;
6858;SDS011;3468;42.824;23.240;2023-05-28T02:15:02;7.40;;;5.40;;
6858;SDS011;3468;42.824;23.240;2023-05-28T02:17:30;8.03;;;5.37;;
6858;SDS011;3468;42.824;23.240;2023-05-28T02:19:57;8.53;;;5.17;;
6858;SDS011;3468;42.824;23.240;2023-05-28T02:22:23;6.77;;;5.20;;
6858;SDS011;3468;42.824;23.240;2023-05-28T02:24:50;5.93;;;4.40;;
6858;SDS011;3468;42.824;23.240;2023-05-28T02:27:17;8.13;;;5.57;;
6858;SDS011;3468;42.824;23.240;2023-05-28T02:29:45;6.83;;;5.13;;
6858;SDS011;3468;42.824;23.240;2023-05-28T02:32:12;6.90;;;5.63;;
6858;SDS011;3468;42.824;23.240;2023-05-28T02:34:40;7.00;;;4.63;;
6858;SDS011;3468;42.824;23.240;2023-05-28T02:37:07;7.40;;;5.13;;
6858;SDS011;3468;42.824;23.240;2023-05-28T02:39:34;7.57;;;5.17;;
6858;SDS011;3468;42.824;23.240;2023-05-28T02:42:00;11.13;;;5.13;;
6858;SDS011;3468;42.824;23.240;2023-05-28T02:44:27;13.00;;;5.23;;
6858;SDS011;3468;42.824;23.240;2023-05-28T02:46:54;7.87;;;4.80;;
6858;SDS011;3468;42.824;23.240;2023-05-28T02:49:20;9.13;;;4.97;;
6858;SDS011;3468;42.824;23.240;2023-05-28T02:51:48;9.60;;;5.47;;
6858;SDS011;3468;42.824;23.240;2023-05-28T02:54:15;6.93;;;5.17;;
6858;SDS011;3468;42.824;23.240;2023-05-28T02:56:42;5.77;;;4.70;;
6858;SDS011;3468;42.824;23.240;2023-05-28T02:59:08;7.73;;;4.80;;
6858;SDS011;3468;42.824;23.240;2023-05-28T03:01:35;9.17;;;5.17;;
6858;SDS011;3468;42.824;23.240;2023-05-28T03:04:02;6.50;;;5.20;;
6858;SDS011;3468;42.824;23.240;2023-05-28T03:06:28;8.47;;;6.13;;
6858;SDS011;3468;42.824;23.240;2023-05-28T03:08:57;7.87;;;5.70;;
6858;SDS011;3468;42.824;23.240;2023-05-28T03:11:23;7.87;;;5.70;;
6858;SDS011;3468;42.824;23.240;2023-05-28T03:13:50;11.73;;;5.83;;
6858;SDS011;3468;42.824;23.240;2023-05-28T03:16:17;8.77;;;5.63;;
6858;SDS011;3468;42.824;23.240;2023-05-28T03:18:43;9.17;;;6.37;;
6858;SDS011;3468;42.824;23.240;2023-05-28T03:21:10;7.63;;;5.23;;
6858;SDS011;3468;42.824;23.240;2023-05-28T03:23:37;8.30;;;5.93;;
6858;SDS011;3468;42.824;23.240;2023-05-28T03:26:05;8.83;;;5.83;;
6858;SDS011;3468;42.824;23.240;2023-05-28T03:28:32;14.07;;;6.37;;
6858;SDS011;3468;42.824;23.240;2023-05-28T03:30:59;10.57;;;6.97;;
6858;SDS011;3468;42.824;23.240;2023-05-28T03:33:26;7.67;;;5.50;;
6858;SDS011;3468;42.824;23.240;2023-05-28T03:35:53;7.27;;;5.40;;
6858;SDS011;3468;42.824;23.240;2023-05-28T03:38:20;9.13;;;5.97;;
6858;SDS011;3468;42.824;23.240;2023-05-28T03:40:46;8.20;;;5.57;;
6858;SDS011;3468;42.824;23.240;2023-05-28T03:43:15;8.53;;;5.53;;
6858;SDS011;3468;42.824;23.240;2023-05-28T03:45:41;9.67;;;5.50;;
6858;SDS011;3468;42.824;23.240;2023-05-28T03:48:08;6.10;;;4.90;;
6858;SDS011;3468;42.824;23.240;2023-05-28T03:50:35;8.10;;;4.57;;
6858;SDS011;3468;42.824;23.240;2023-05-28T03:53:02;8.30;;;4.63;;
6858;SDS011;3468;42.824;23.240;2023-05-28T03:55:29;7.20;;;5.10;;
6858;SDS011;3468;42.824;23.240;2023-05-28T03:57:55;8.13;;;5.17;;
6858;SDS011;3468;42.824;23.240;2023-05-28T04:00:24;7.17;;;5.30;;
6858;SDS011;3468;42.824;23.240;2023-05-28T04:02:50;8.93;;;6.30;;
6858;SDS011;3468;42.824;23.240;2023-05-28T04:05:17;7.17;;;5.57;;
6858;SDS011;3468;42.824;23.240;2023-05-28T04:07:44;8.33;;;5.67;;
6858;SDS011;3468;42.824;23.240;2023-05-28T04:10:10;8.03;;;5.20;;
6858;SDS011;3468;42.824;23.240;2023-05-28T04:12:37;5.50;;;4.70;;
6858;SDS011;3468;42.824;23.240;2023-05-28T04:15:04;8.00;;;4.47;;
6858;SDS011;3468;42.824;23.240;2023-05-28T04:17:34;8.97;;;5.43;;
6858;SDS011;3468;42.824;23.240;2023-05-28T04:20:01;8.47;;;5.27;;
6858;SDS011;3468;42.824;23.240;2023-05-28T04:22:31;7.93;;;4.87;;
6858;SDS011;3468;42.824;23.240;2023-05-28T04:24:59;8.47;;;5.37;;
6858;SDS011;3468;42.824;23.240;2023-05-28T04:27:26;7.40;;;5.33;;
6858;SDS011;3468;42.824;23.240;2023-05-28T04:29:53;8.20;;;5.33;;
6858;SDS011;3468;42.824;23.240;2023-05-28T04:32:22;8.60;;;5.73;;
6858;SDS011;3468;42.824;23.240;2023-05-28T04:34:50;10.37;;;5.67;;
6858;SDS011;3468;42.824;23.240;2023-05-28T04:37:18;9.10;;;5.67;;
6858;SDS011;3468;42.824;23.240;2023-05-28T04:39:45;9.73;;;6.23;;
6858;SDS011;3468;42.824;23.240;2023-05-28T04:42:11;9.13;;;6.00;;
6858;SDS011;3468;42.824;23.240;2023-05-28T04:44:42;9.13;;;6.00;;
6858;SDS011;3468;42.824;23.240;2023-05-28T04:47:08;8.90;;;4.80;;
6858;SDS011;3468;42.824;23.240;2023-05-28T04:49:37;7.60;;;5.20;;
6858;SDS011;3468;42.824;23.240;2023-05-28T04:52:07;11.30;;;5.33;;
6858;SDS011;3468;42.824;23.240;2023-05-28T04:54:34;6.83;;;4.77;;
6858;SDS011;3468;42.824;23.240;2023-05-28T04:57:00;8.23;;;4.87;;
6858;SDS011;3468;42.824;23.240;2023-05-28T04:59:30;8.17;;;4.70;;
6858;SDS011;3468;42.824;23.240;2023-05-28T05:01:56;6.83;;;4.80;;
6858;SDS011;3468;42.824;23.240;2023-05-28T05:04:23;9.40;;;5.15;;
6858;SDS011;3468;42.824;23.240;2023-05-28T05:06:50;8.20;;;4.97;;
6858;SDS011;3468;42.824;23.240;2023-05-28T05:09:18;6.88;;;4.60;;
6858;SDS011;3468;42.824;23.240;2023-05-28T05:11:46;9.37;;;5.07;;
6858;SDS011;3468;42.824;23.240;2023-05-28T05:14:12;5.93;;;4.27;;
6858;SDS011;3468;42.824;23.240;2023-05-28T05:16:39;7.20;;;4.72;;
6858;SDS011;3468;42.824;23.240;2023-05-28T05:19:06;7.47;;;4.47;;
6858;SDS011;3468;42.824;23.240;2023-05-28T05:21:33;5.80;;;4.20;;
6858;SDS011;3468;42.824;23.240;2023-05-28T05:24:00;7.00;;;4.68;;
6858;SDS011;3468;42.824;23.240;2023-05-28T05:26:29;6.95;;;4.82;;
6858;SDS011;3468;42.824;23.240;2023-05-28T05:28:55;5.90;;;4.57;;
6858;SDS011;3468;42.824;23.240;2023-05-28T05:31:22;8.98;;;4.90;;
6858;SDS011;3468;42.824;23.240;2023-05-28T05:33:49;5.55;;;4.32;;
6858;SDS011;3468;42.824;23.240;2023-05-28T05:36:15;6.55;;;4.88;;
6858;SDS011;3468;42.824;23.240;2023-05-28T05:38:42;6.28;;;4.53;;
6858;SDS011;3468;42.824;23.240;2023-05-28T05:41:11;11.23;;;4.93;;
6858;SDS011;3468;42.824;23.240;2023-05-28T05:43:39;6.55;;;5.00;;
6858;SDS011;3468;42.824;23.240;2023-05-28T05:46:05;7.40;;;4.57;;
6858;SDS011;3468;42.824;23.240;2023-05-28T05:48:35;6.68;;;5.00;;
6858;SDS011;3468;42.824;23.240;2023-05-28T05:51:02;6.70;;;4.32;;
6858;SDS011;3468;42.824;23.240;2023-05-28T05:53:31;7.57;;;5.10;;
6858;SDS011;3468;42.824;23.240;2023-05-28T05:56:01;6.30;;;5.10;;
6858;SDS011;3468;42.824;23.240;2023-05-28T05:58:28;7.97;;;4.82;;
6858;SDS011;3468;42.824;23.240;2023-05-28T06:00:58;8.10;;;5.28;;
6858;SDS011;3468;42.824;23.240;2023-05-28T06:03:24;6.10;;;4.55;;
6858;SDS011;3468;42.824;23.240;2023-05-28T06:05:52;12.43;;;5.25;;
6858;SDS011;3468;42.824;23.240;2023-05-28T06:08:19;8.73;;;4.47;;
6858;SDS011;3468;42.824;23.240;2023-05-28T06:10:46;7.20;;;4.47;;
6858;SDS011;3468;42.824;23.240;2023-05-28T06:13:14;6.45;;;4.75;;
6858;SDS011;3468;42.824;23.240;2023-05-28T06:15:42;7.82;;;4.90;;
6858;SDS011;3468;42.824;23.240;2023-05-28T06:18:11;7.75;;;4.50;;
6858;SDS011;3468;42.824;23.240;2023-05-28T06:20:38;8.07;;;4.90;;
6858;SDS011;3468;42.824;23.240;2023-05-28T06:23:07;6.90;;;4.53;;
6858;SDS011;3468;42.824;23.240;2023-05-28T06:25:35;6.38;;;4.75;;
6858;SDS011;3468;42.824;23.240;2023-05-28T06:28:08;7.75;;;4.80;;
6858;SDS011;3468;42.824;23.240;2023-05-28T06:30:36;7.70;;;4.50;;
6858;SDS011;3468;42.824;23.240;2023-05-28T06:33:06;10.80;;;4.78;;
6858;SDS011;3468;42.824;23.240;2023-05-28T06:35:35;7.13;;;5.25;;
6858;SDS011;3468;42.824;23.240;2023-05-28T06:38:02;7.57;;;5.43;;
6858;SDS011;3468;42.824;23.240;2023-05-28T06:40:33;28.30;;;14.60;;
6858;SDS011;3468;42.824;23.240;2023-05-28T06:43:00;7.63;;;4.80;;
6858;SDS011;3468;42.824;23.240;2023-05-28T06:45:28;5.75;;;4.55;;
6858;SDS011;3468;42.824;23.240;2023-05-28T06:47:58;9.38;;;4.88;;
6858;SDS011;3468;42.824;23.240;2023-05-28T06:50:25;9.00;;;4.57;;
6858;SDS011;3468;42.824;23.240;2023-05-28T06:52:55;10.57;;;7.05;;
6858;SDS011;3468;42.824;23.240;2023-05-28T06:55:23;7.03;;;5.25;;
6858;SDS011;3468;42.824;23.240;2023-05-28T06:57:50;9.52;;;4.78;;
6858;SDS011;3468;42.824;23.240;2023-05-28T07:00:20;7.78;;;5.95;;
6858;SDS011;3468;42.824;23.240;2023-05-28T07:02:48;10.30;;;5.95;;
6858;SDS011;3468;42.824;23.240;2023-05-28T07:05:15;8.35;;;5.30;;
6858;SDS011;3468;42.824;23.240;2023-05-28T07:07:42;5.47;;;4.30;;
6858;SDS011;3468;42.824;23.240;2023-05-28T07:10:14;13.75;;;7.57;;
6858;SDS011;3468;42.824;23.240;2023-05-28T07:12:41;8.27;;;4.82;;
6858;SDS011;3468;42.824;23.240;2023-05-28T07:15:09;6.55;;;4.60;;
6858;SDS011;3468;42.824;23.240;2023-05-28T07:17:36;9.90;;;4.40;;
6858;SDS011;3468;42.824;23.240;2023-05-28T07:20:03;10.27;;;3.73;;
6858;SDS011;3468;42.824;23.240;2023-05-28T07:22:31;4.38;;;3.38;;
6858;SDS011;3468;42.824;23.240;2023-05-28T07:24:57;5.43;;;3.70;;
6858;SDS011;3468;42.824;23.240;2023-05-28T07:27:26;5.18;;;3.70;;
6858;SDS011;3468;42.824;23.240;2023-05-28T07:29:52;6.07;;;3.90;;
6858;SDS011;3468;42.824;23.240;2023-05-28T07:32:20;6.27;;;4.20;;
6858;SDS011;3468;42.824;23.240;2023-05-28T07:34:47;6.20;;;4.38;;
6858;SDS011;3468;42.824;23.240;2023-05-28T07:37:14;20.02;;;11.75;;
6858;SDS011;3468;42.824;23.240;2023-05-28T07:39:43;8.13;;;5.25;;
6858;SDS011;3468;42.824;23.240;2023-05-28T07:42:10;6.18;;;4.47;;
6858;SDS011;3468;42.824;23.240;2023-05-28T07:44:38;8.20;;;3.88;;
6858;SDS011;3468;42.824;23.240;2023-05-28T07:47:05;12.98;;;8.45;;
6858;SDS011;3468;42.824;23.240;2023-05-28T07:49:32;22.80;;;13.87;;
6858;SDS011;3468;42.824;23.240;2023-05-28T07:51:59;11.90;;;8.05;;
6858;SDS011;3468;42.824;23.240;2023-05-28T07:54:26;7.38;;;4.35;;
6858;SDS011;3468;42.824;23.240;2023-05-28T07:56:53;6.00;;;4.13;;
6858;SDS011;3468;42.824;23.240;2023-05-28T07:59:19;6.30;;;4.10;;
6858;SDS011;3468;42.824;23.240;2023-05-28T08:01:48;6.13;;;3.88;;
6858;SDS011;3468;42.824;23.240;2023-05-28T08:04:15;4.63;;;3.33;;
6858;SDS011;3468;42.824;23.240;2023-05-28T08:06:42;5.90;;;3.33;;
6858;SDS011;3468;42.824;23.240;2023-05-28T08:09:08;5.70;;;4.00;;
6858;SDS011;3468;42.824;23.240;2023-05-28T08:11:35;7.05;;;4.68;;
6858;SDS011;3468;42.824;23.240;2023-05-28T08:14:02;14.05;;;9.90;;
6858;SDS011;3468;42.824;23.240;2023-05-28T08:16:28;6.47;;;3.83;;
6858;SDS011;3468;42.824;23.240;2023-05-28T08:18:56;4.53;;;3.38;;
6858;SDS011;3468;42.824;23.240;2023-05-28T08:21:23;4.93;;;3.53;;
6858;SDS011;3468;42.824;23.240;2023-05-28T08:23:50;8.55;;;3.42;;
6858;SDS011;3468;42.824;23.240;2023-05-28T08:26:17;3.00;;;2.30;;
6858;SDS011;3468;42.824;23.240;2023-05-28T08:28:44;5.65;;;2.53;;
6858;SDS011;3468;42.824;23.240;2023-05-28T08:31:10;3.65;;;2.60;;
6858;SDS011;3468;42.824;23.240;2023-05-28T08:33:37;4.13;;;2.60;;
6858;SDS011;3468;42.824;23.240;2023-05-28T08:36:05;4.10;;;2.65;;
6858;SDS011;3468;42.824;23.240;2023-05-28T08:38:32;5.65;;;2.25;;
6858;SDS011;3468;42.824;23.240;2023-05-28T08:40:59;3.20;;;2.30;;
6858;SDS011;3468;42.824;23.240;2023-05-28T08:43:27;3.17;;;2.00;;
6858;SDS011;3468;42.824;23.240;2023-05-28T08:45:54;3.03;;;2.35;;
6858;SDS011;3468;42.824;23.240;2023-05-28T08:48:21;3.65;;;2.67;;
6858;SDS011;3468;42.824;23.240;2023-05-28T08:50:49;4.10;;;2.72;;
6858;SDS011;3468;42.824;23.240;2023-05-28T08:53:20;9.85;;;4.00;;
6858;SDS011;3468;42.824;23.240;2023-05-28T08:55:48;3.65;;;2.60;;
6858;SDS011;3468;42.824;23.240;2023-05-28T08:58:15;2.47;;;2.00;;
6858;SDS011;3468;42.824;23.240;2023-05-28T09:00:42;3.45;;;2.30;;
6858;SDS011;3468;42.824;23.240;2023-05-28T09:03:10;2.40;;;2.03;;
6858;SDS011;3468;42.824;23.240;2023-05-28T09:05:37;4.65;;;1.80;;
6858;SDS011;3468;42.824;23.240;2023-05-28T09:08:05;2.42;;;2.13;;
6858;SDS011;3468;42.824;23.240;2023-05-28T09:10:35;3.28;;;2.03;;
6858;SDS011;3468;42.824;23.240;2023-05-28T09:13:02;3.67;;;2.00;;
6858;SDS011;3468;42.824;23.240;2023-05-28T09:15:29;4.63;;;2.40;;
6858;SDS011;3468;42.824;23.240;2023-05-28T09:17:58;9.63;;;3.35;;
6858;SDS011;3468;42.824;23.240;2023-05-28T09:20:25;3.65;;;2.10;;
6858;SDS011;3468;42.824;23.240;2023-05-28T09:22:56;2.63;;;2.15;;
6858;SDS011;3468;42.824;23.240;2023-05-28T09:25:23;4.38;;;2.60;;
6858;SDS011;3468;42.824;23.240;2023-05-28T09:27:52;3.60;;;2.22;;
6858;SDS011;3468;42.824;23.240;2023-05-28T09:30:19;4.10;;;2.58;;
6858;SDS011;3468;42.824;23.240;2023-05-28T09:32:48;2.95;;;2.17;;
6858;SDS011;3468;42.824;23.240;2023-05-28T09:35:24;2.88;;;1.73;;
6858;SDS011;3468;42.824;23.240;2023-05-28T09:37:58;2.45;;;1.98;;
6858;SDS011;3468;42.824;23.240;2023-05-28T09:40:26;2.58;;;2.08;;
6858;SDS011;3468;42.824;23.240;2023-05-28T09:42:55;4.20;;;2.05;;
6858;SDS011;3468;42.824;23.240;2023-05-28T09:45:22;2.63;;;1.85;;
6858;SDS011;3468;42.824;23.240;2023-05-28T09:47:50;2.38;;;1.90;;
6858;SDS011;3468;42.824;23.240;2023-05-28T09:50:17;2.13;;;1.75;;
6858;SDS011;3468;42.824;23.240;2023-05-28T09:52:44;3.00;;;1.88;;
6858;SDS011;3468;42.824;23.240;2023-05-28T09:55:12;2.63;;;2.20;;
6858;SDS011;3468;42.824;23.240;2023-05-28T09:57:43;2.85;;;2.28;;
6858;SDS011;3468;42.824;23.240;2023-05-28T10:00:16;7.80;;;5.70;;
6858;SDS011;3468;42.824;23.240;2023-05-28T10:02:55;10.73;;;7.70;;
6858;SDS011;3468;42.824;23.240;2023-05-28T10:05:26;7.50;;;5.68;;
6858;SDS011;3468;42.824;23.240;2023-05-28T10:07:57;2.75;;;2.28;;
6858;SDS011;3468;42.824;23.240;2023-05-28T10:10:26;2.50;;;2.00;;
6858;SDS011;3468;42.824;23.240;2023-05-28T10:12:55;2.55;;;1.90;;
6858;SDS011;3468;42.824;23.240;2023-05-28T10:15:24;2.33;;;1.70;;
6858;SDS011;3468;42.824;23.240;2023-05-28T10:17:51;3.97;;;1.65;;
6858;SDS011;3468;42.824;23.240;2023-05-28T10:20:19;4.18;;;2.08;;
6858;SDS011;3468;42.824;23.240;2023-05-28T10:22:46;2.20;;;1.80;;
6858;SDS011;3468;42.824;23.240;2023-05-28T10:25:14;3.80;;;1.67;;
6858;SDS011;3468;42.824;23.240;2023-05-28T10:27:43;2.65;;;1.98;;
6858;SDS011;3468;42.824;23.240;2023-05-28T10:30:14;2.85;;;1.80;;
6858;SDS011;3468;42.824;23.240;2023-05-28T10:32:58;2.40;;;1.90;;
6858;SDS011;3468;42.824;23.240;2023-05-28T10:35:25;2.55;;;1.83;;
6858;SDS011;3468;42.824;23.240;2023-05-28T10:38:01;2.78;;;2.03;;
6858;SDS011;3468;42.824;23.240;2023-05-28T10:40:29;2.53;;;1.90;;
6858;SDS011;3468;42.824;23.240;2023-05-28T10:42:59;2.65;;;2.00;;
6858;SDS011;3468;42.824;23.240;2023-05-28T10:48:14;3.25;;;2.63;;
6858;SDS011;3468;42.824;23.240;2023-05-28T10:50:55;3.42;;;3.13;;
6858;SDS011;3468;42.824;23.240;2023-05-28T10:53:24;4.07;;;3.40;;
6858;SDS011;3468;42.824;23.240;2023-05-28T10:55:52;4.40;;;3.47;;
6858;SDS011;3468;42.824;23.240;2023-05-28T10:58:23;5.22;;;4.15;;
6858;SDS011;3468;42.824;23.240;2023-05-28T11:00:52;5.38;;;4.43;;
6858;SDS011;3468;42.824;23.240;2023-05-28T11:03:39;4.00;;;3.60;;
6858;SDS011;3468;42.824;23.240;2023-05-28T11:06:10;5.75;;;3.75;;
6858;SDS011;3468;42.824;23.240;2023-05-28T11:08:39;4.78;;;4.07;;
6858;SDS011;3468;42.824;23.240;2023-05-28T11:11:07;4.60;;;3.60;;
6858;SDS011;3468;42.824;23.240;2023-05-28T11:13:34;5.28;;;4.15;;
6858;SDS011;3468;42.824;23.240;2023-05-28T11:16:08;5.63;;;3.60;;
6858;SDS011;3468;42.824;23.240;2023-05-28T11:18:35;4.43;;;3.45;;
6858;SDS011;3468;42.824;23.240;2023-05-28T11:21:03;4.53;;;3.30;;
6858;SDS011;3468;42.824;23.240;2023-05-28T11:23:32;6.43;;;3.75;;
6858;SDS011;3468;42.824;23.240;2023-05-28T11:25:59;5.43;;;4.00;;
6858;SDS011;3468;42.824;23.240;2023-05-28T11:28:26;5.20;;;3.80;;
6858;SDS011;3468;42.824;23.240;2023-05-28T11:30:55;6.72;;;3.70;;
6858;SDS011;3468;42.824;23.240;2023-05-28T11:33:25;3.75;;;3.42;;
6858;SDS011;3468;42.824;23.240;2023-05-28T11:35:56;3.70;;;3.40;;
6858;SDS011;3468;42.824;23.240;2023-05-28T11:38:24;5.70;;;4.15;;
6858;SDS011;3468;42.824;23.240;2023-05-28T11:40:57;5.75;;;3.72;;
6858;SDS011;3468;42.824;23.240;2023-05-28T11:43:24;5.68;;;3.67;;
6858;SDS011;3468;42.824;23.240;2023-05-28T11:45:51;3.58;;;3.28;;
6858;SDS011;3468;42.824;23.240;2023-05-28T11:48:23;3.90;;;3.38;;
6858;SDS011;3468;42.824;23.240;2023-05-28T11:50:55;7.60;;;3.28;;
6858;SDS011;3468;42.824;23.240;2023-05-28T11:53:23;5.93;;;3.65;;
6858;SDS011;3468;42.824;23.240;2023-05-28T11:55:50;6.97;;;3.42;;
6858;SDS011;3468;42.824;23.240;2023-05-28T11:58:17;4.13;;;3.03;;
6858;SDS011;3468;42.824;23.240;2023-05-28T12:00:44;3.97;;;2.88;;
6858;SDS011;3468;42.824;23.240;2023-05-28T12:03:11;3.65;;;3.05;;
6858;SDS011;3468;42.824;23.240;2023-05-28T12:05:39;6.05;;;3.58;;
6858;SDS011;3468;42.824;23.240;2023-05-28T12:08:06;8.25;;;5.05;;
6858;SDS011;3468;42.824;23.240;2023-05-28T12:10:33;6.88;;;4.63;;
6858;SDS011;3468;42.824;23.240;2023-05-28T12:13:00;15.25;;;9.02;;
6858;SDS011;3468;42.824;23.240;2023-05-28T12:15:27;6.78;;;4.13;;
6858;SDS011;3468;42.824;23.240;2023-05-28T12:17:55;6.03;;;3.70;;
6858;SDS011;3468;42.824;23.240;2023-05-28T12:20:30;5.65;;;3.60;;
6858;SDS011;3468;42.824;23.240;2023-05-28T12:23:03;6.15;;;3.88;;
6858;SDS011;3468;42.824;23.240;2023-05-28T12:28:20;9.32;;;4.30;;
6858;SDS011;3468;42.824;23.240;2023-05-28T12:30:48;6.70;;;3.90;;
6858;SDS011;3468;42.824;23.240;2023-05-28T12:33:18;5.20;;;4.00;;
6858;SDS011;3468;42.824;23.240;2023-05-28T12:35:45;6.10;;;4.47;;
6858;SDS011;3468;42.824;23.240;2023-05-28T12:38:13;4.93;;;3.80;;
6858;SDS011;3468;42.824;23.240;2023-05-28T12:40:40;4.78;;;3.78;;
6858;SDS011;3468;42.824;23.240;2023-05-28T12:43:07;4.68;;;4.10;;
6858;SDS011;3468;42.824;23.240;2023-05-28T12:45:34;4.85;;;3.80;;
6858;SDS011;3468;42.824;23.240;2023-05-28T12:48:01;7.05;;;3.92;;
6858;SDS011;3468;42.824;23.240;2023-05-28T12:50:28;5.93;;;3.80;;
6858;SDS011;3468;42.824;23.240;2023-05-28T12:52:55;6.53;;;4.07;;
6858;SDS011;3468;42.824;23.240;2023-05-28T12:55:23;5.95;;;3.97;;
6858;SDS011;3468;42.824;23.240;2023-05-28T12:57:51;5.55;;;4.13;;
6858;SDS011;3468;42.824;23.240;2023-05-28T13:00:18;5.22;;;4.60;;
6858;SDS011;3468;42.824;23.240;2023-05-28T13:02:45;5.70;;;3.83;;
6858;SDS011;3468;42.824;23.240;2023-05-28T13:05:11;5.70;;;4.45;;
6858;SDS011;3468;42.824;23.240;2023-05-28T13:07:38;7.55;;;4.70;;
6858;SDS011;3468;42.824;23.240;2023-05-28T13:10:05;6.18;;;5.03;;
6858;SDS011;3468;42.824;23.240;2023-05-28T13:12:35;7.57;;;6.68;;
6858;SDS011;3468;42.824;23.240;2023-05-28T13:15:03;5.72;;;4.47;;
6858;SDS011;3468;42.824;23.240;2023-05-28T13:17:31;6.45;;;5.28;;
6858;SDS011;3468;42.824;23.240;2023-05-28T13:19:58;8.18;;;4.97;;
6858;SDS011;3468;42.824;23.240;2023-05-28T13:22:25;8.98;;;5.38;;
6858;SDS011;3468;42.824;23.240;2023-05-28T13:24:51;6.55;;;5.20;;
6858;SDS011;3468;42.824;23.240;2023-05-28T13:27:18;6.15;;;4.85;;
6858;SDS011;3468;42.824;23.240;2023-05-28T13:29:46;7.88;;;5.55;;
6858;SDS011;3468;42.824;23.240;2023-05-28T13:32:13;7.53;;;5.30;;
6858;SDS011;3468;42.824;23.240;2023-05-28T13:34:40;6.82;;;5.20;;
6858;SDS011;3468;42.824;23.240;2023-05-28T13:37:06;9.93;;;4.95;;
6858;SDS011;3468;42.824;23.240;2023-05-28T13:39:33;7.85;;;4.93;;
6858;SDS011;3468;42.824;23.240;2023-05-28T13:42:00;6.75;;;5.13;;
6858;SDS011;3468;42.824;23.240;2023-05-28T13:44:28;6.55;;;5.03;;
6858;SDS011;3468;42.824;23.240;2023-05-28T13:46:56;6.28;;;4.60;;
6858;SDS011;3468;42.824;23.240;2023-05-28T13:49:23;9.90;;;5.82;;
6858;SDS011;3468;42.824;23.240;2023-05-28T13:51:50;5.90;;;5.13;;
6858;SDS011;3468;42.824;23.240;2023-05-28T13:54:17;8.93;;;5.07;;
6858;SDS011;3468;42.824;23.240;2023-05-28T13:56:44;5.82;;;5.22;;
6858;SDS011;3468;42.824;23.240;2023-05-28T13:59:10;7.38;;;5.03;;
6858;SDS011;3468;42.824;23.240;2023-05-28T14:01:37;9.32;;;5.45;;
6858;SDS011;3468;42.824;23.240;2023-05-28T14:04:05;10.35;;;5.13;;
6858;SDS011;3468;42.824;23.240;2023-05-28T14:06:32;5.40;;;3.30;;
6858;SDS011;3468;42.824;23.240;2023-05-28T14:08:59;8.32;;;4.50;;
6858;SDS011;3468;42.824;23.240;2023-05-28T14:11:27;7.55;;;4.20;;
6858;SDS011;3468;42.824;23.240;2023-05-28T14:13:53;5.65;;;3.53;;
6858;SDS011;3468;42.824;23.240;2023-05-28T14:16:20;9.88;;;4.28;;
6858;SDS011;3468;42.824;23.240;2023-05-28T14:18:47;6.00;;;4.00;;
6858;SDS011;3468;42.824;23.240;2023-05-28T14:21:15;4.20;;;2.65;;
6858;SDS011;3468;42.824;23.240;2023-05-28T14:23:42;4.50;;;3.45;;
6858;SDS011;3468;42.824;23.240;2023-05-28T14:26:09;5.05;;;2.72;;
6858;SDS011;3468;42.824;23.240;2023-05-28T14:28:35;5.32;;;2.80;;
6858;SDS011;3468;42.824;23.240;2023-05-28T14:31:02;6.55;;;3.13;;
6858;SDS011;3468;42.824;23.240;2023-05-28T14:33:29;3.05;;;2.65;;
6858;SDS011;3468;42.824;23.240;2023-05-28T14:35:56;2.97;;;2.30;;
6858;SDS011;3468;42.824;23.240;2023-05-28T14:38:24;3.92;;;2.65;;
6858;SDS011;3468;42.824;23.240;2023-05-28T14:40:51;3.80;;;2.95;;
6858;SDS011;3468;42.824;23.240;2023-05-28T14:43:18;5.32;;;3.45;;
6858;SDS011;3468;42.824;23.240;2023-05-28T14:45:44;8.02;;;3.20;;
6858;SDS011;3468;42.824;23.240;2023-05-28T14:48:11;3.92;;;2.40;;
6858;SDS011;3468;42.824;23.240;2023-05-28T14:50:38;4.93;;;2.88;;
6858;SDS011;3468;42.824;23.240;2023-05-28T14:53:05;4.35;;;2.65;;
6858;SDS011;3468;42.824;23.240;2023-05-28T14:55:33;4.43;;;2.85;;
6858;SDS011;3468;42.824;23.240;2023-05-28T14:58:00;3.63;;;2.60;;
6858;SDS011;3468;42.824;23.240;2023-05-28T15:00:27;4.57;;;2.63;;
6858;SDS011;3468;42.824;23.240;2023-05-28T15:02:53;3.72;;;2.50;;
6858;SDS011;3468;42.824;23.240;2023-05-28T15:05:20;4.40;;;2.80;;
6858;SDS011;3468;42.824;23.240;2023-05-28T15:07:47;7.38;;;2.53;;
6858;SDS011;3468;42.824;23.240;2023-05-28T15:10:13;3.78;;;2.33;;